createdAt,value
2022-08-08T00:01:00.132Z,982.72
2022-08-08T00:08:13.296Z,982.73
2022-08-08T00:15:56.227Z,982.71
2022-08-08T00:22:50.656Z,982.71
2022-08-08T00:29:49.221Z,982.66
2022-08-08T00:37:03.327Z,982.61
2022-08-08T00:44:04.585Z,982.7
2022-08-08T00:51:10.184Z,982.67
2022-08-08T00:58:37.873Z,982.54
2022-08-08T01:05:59.039Z,982.48
2022-08-08T01:13:07.171Z,982.42
2022-08-08T01:20:15.762Z,982.36
2022-08-08T01:27:16.313Z,982.37
2022-08-08T01:34:20.994Z,982.46
2022-08-08T01:41:20.015Z,982.46
2022-08-08T01:48:31.954Z,982.51
2022-08-08T01:56:09.211Z,982.62
2022-08-08T02:02:58.745Z,982.69
2022-08-08T02:10:12.629Z,982.67
2022-08-08T02:17:21.253Z,982.64
2022-08-08T02:24:28.226Z,982.66
2022-08-08T02:31:44.049Z,982.66
2022-08-08T02:39:40.147Z,982.7
2022-08-08T02:46:18.637Z,982.66
2022-08-08T02:53:31.202Z,982.62
2022-08-08T03:00:37.754Z,982.62
2022-08-08T03:07:41.063Z,982.6
2022-08-08T03:15:55.148Z,982.63
2022-08-08T03:22:01.215Z,982.58
2022-08-08T03:28:42.897Z,982.58
2022-08-08T03:35:21.186Z,982.54
2022-08-08T03:42:04.337Z,982.55
2022-08-08T03:49:10.383Z,982.57
2022-08-08T03:55:55.512Z,982.6
2022-08-08T04:02:33.568Z,982.66
2022-08-08T04:09:12.206Z,982.71
2022-08-08T04:16:04.283Z,982.77
2022-08-08T04:22:39.561Z,982.82
2022-08-08T04:29:04.552Z,982.86
2022-08-08T04:35:50.627Z,982.91
2022-08-08T04:42:24.278Z,982.94
2022-08-08T04:48:51.264Z,982.91
2022-08-08T04:55:29.283Z,983.06
2022-08-08T05:02:02.080Z,983.1
2022-08-08T05:08:37.293Z,983.14
2022-08-08T05:15:03.352Z,983.16
2022-08-08T05:21:43.510Z,983.19
2022-08-08T05:28:48.537Z,983.23
2022-08-08T05:35:14.525Z,983.26
2022-08-08T05:42:06.689Z,983.3
2022-08-08T05:48:54.698Z,983.28
2022-08-08T05:55:26.426Z,983.29
2022-08-08T06:02:10.787Z,983.28
2022-08-08T06:09:42.122Z,983.36
2022-08-08T06:16:10.400Z,983.42
2022-08-08T06:22:51.318Z,983.5
2022-08-08T06:29:49.014Z,983.56
2022-08-08T06:36:54.278Z,983.63
2022-08-08T06:43:57.031Z,983.66
2022-08-08T06:50:38.289Z,983.64
2022-08-08T06:57:16.304Z,983.63
2022-08-08T07:04:36.193Z,983.64
2022-08-08T07:11:28.390Z,983.7
2022-08-08T07:18:42.665Z,983.74
2022-08-08T07:25:54.280Z,983.73
2022-08-08T07:32:34.228Z,983.72
2022-08-08T07:39:13.627Z,983.71
2022-08-08T07:46:06.026Z,983.68
2022-08-08T07:52:44.572Z,983.73
2022-08-08T07:59:54.566Z,983.79
2022-08-08T08:07:04.856Z,983.79
2022-08-08T08:14:06.259Z,983.87
2022-08-08T08:20:59.839Z,983.92
2022-08-08T08:27:37.738Z,983.95
2022-08-08T08:34:09.950Z,983.93
2022-08-08T08:40:51.283Z,983.91
2022-08-08T08:47:43.730Z,983.96
2022-08-08T08:54:32.399Z,983.93
2022-08-08T09:01:15.510Z,983.92
2022-08-08T09:08:12.500Z,983.94
2022-08-08T09:15:02.281Z,983.98
2022-08-08T09:22:05.734Z,983.98
2022-08-08T09:28:39.744Z,984.01
2022-08-08T09:35:37.821Z,983.92
2022-08-08T09:42:52.124Z,983.93
2022-08-08T09:49:51.715Z,983.88
2022-08-08T09:56:45.526Z,983.87
2022-08-08T10:03:43.673Z,983.85
2022-08-08T10:10:33.062Z,983.89
2022-08-08T10:17:57.595Z,983.89
2022-08-08T10:24:34.859Z,983.8
2022-08-08T10:31:47.134Z,983.77
2022-08-08T10:38:28.538Z,983.66
2022-08-08T10:45:17.212Z,983.62
2022-08-08T10:51:56.066Z,983.58
2022-08-08T10:58:32.001Z,983.57
2022-08-08T11:05:23.892Z,983.56
2022-08-08T11:12:12.357Z,983.48
2022-08-08T11:18:51.842Z,983.5
2022-08-08T11:25:46.376Z,983.36
2022-08-08T11:32:31.017Z,983.41
2022-08-08T11:39:14.112Z,983.43
2022-08-08T11:46:10.257Z,983.37
2022-08-08T11:52:39.343Z,983.2
2022-08-08T11:59:41.691Z,983.22
2022-08-08T12:06:49.711Z,983.23
2022-08-08T12:14:03.246Z,983.14
2022-08-08T12:20:54.885Z,983.11
2022-08-08T12:27:43.474Z,983.1
2022-08-08T12:34:19.816Z,983.12
2022-08-08T12:41:34.128Z,983.06
2022-08-08T12:48:36.852Z,982.94
2022-08-08T12:55:50.236Z,982.97
2022-08-08T13:02:29.644Z,982.96
2022-08-08T13:09:42.974Z,982.86
2022-08-08T13:16:42.369Z,982.92
2022-08-08T13:23:30.351Z,982.92
2022-08-08T13:30:01.035Z,982.77
2022-08-08T13:36:36.478Z,982.79
2022-08-08T13:43:17.089Z,982.77
2022-08-08T13:50:34.015Z,982.69
2022-08-08T13:57:13.741Z,982.71
2022-08-08T14:04:24.411Z,982.68
2022-08-08T14:11:02.949Z,982.55
2022-08-08T14:17:57.501Z,982.56
2022-08-08T14:24:26.111Z,982.51
2022-08-08T14:32:06.669Z,982.47
2022-08-08T14:38:52.220Z,982.44
2022-08-08T14:46:02.545Z,982.41
2022-08-08T14:52:47.174Z,982.45
2022-08-08T14:59:44.786Z,982.36
2022-08-08T15:06:24.293Z,982.39
2022-08-08T15:12:47.947Z,982.4
2022-08-08T15:19:19.808Z,982.34
2022-08-08T15:25:56.257Z,982.4
2022-08-08T15:32:33.067Z,982.37
2022-08-08T15:38:56.450Z,982.44
2022-08-08T15:45:29.779Z,982.39
2022-08-08T15:51:59.991Z,982.39
2022-08-08T15:58:32.094Z,982.37
2022-08-08T16:05:15.924Z,982.36
2022-08-08T16:13:06.008Z,982.38
2022-08-08T16:18:33.902Z,982.34
2022-08-08T16:25:06.605Z,982.37
2022-08-08T16:31:30.008Z,982.31
2022-08-08T16:37:58.324Z,982.33
2022-08-08T16:44:54.856Z,982.3
2022-08-08T16:54:58.704Z,982.3
2022-08-08T16:58:18.578Z,982.28
2022-08-08T17:04:51.026Z,982.31
2022-08-08T17:11:28.188Z,982.35
2022-08-08T17:18:15.755Z,982.35
2022-08-08T17:24:57.941Z,982.38
2022-08-08T17:31:44.359Z,982.39
2022-08-08T17:38:15.707Z,982.48
2022-08-08T17:44:45.402Z,982.54
2022-08-08T17:51:18.494Z,982.59
2022-08-08T17:57:45.965Z,982.69
2022-08-08T18:04:31.190Z,982.73
2022-08-08T18:11:03.990Z,982.76
2022-08-08T18:18:04.845Z,982.75
2022-08-08T18:24:26.144Z,982.81
2022-08-08T18:31:07.253Z,982.9
2022-08-08T18:37:48.248Z,982.98
2022-08-08T18:44:16.375Z,983.04
2022-08-08T18:50:50.041Z,983.14
2022-08-08T18:57:18.607Z,983.28
2022-08-08T19:04:01.411Z,983.35
2022-08-08T19:10:44.895Z,983.44
2022-08-08T19:17:29.179Z,983.53
2022-08-08T19:23:58.615Z,983.67
2022-08-08T19:30:27.211Z,983.79
2022-08-08T19:37:04.564Z,983.84
2022-08-08T19:43:32.562Z,983.91
2022-08-08T19:50:14.841Z,983.96
2022-08-08T19:56:48.682Z,984.1
2022-08-08T20:04:00.595Z,984.11
2022-08-08T20:10:04.940Z,984.17
2022-08-08T20:16:41.447Z,984.19
2022-08-08T20:23:17.420Z,984.21
2022-08-08T20:29:56.180Z,984.24
2022-08-08T20:36:28.111Z,984.23
2022-08-08T20:42:55.739Z,984.24
2022-08-08T20:49:39.775Z,984.28
2022-08-08T20:56:01.504Z,984.27
2022-08-08T21:02:32.217Z,984.29
2022-08-08T21:09:03.733Z,984.29
2022-08-08T21:16:04.469Z,984.27
2022-08-08T21:22:09.955Z,984.28
2022-08-08T21:28:46.653Z,984.32
2022-08-08T21:36:15.608Z,984.28
2022-08-08T21:42:01.206Z,984.28
2022-08-08T21:48:35.579Z,984.28
2022-08-08T21:55:24.098Z,984.28
2022-08-08T22:01:59.873Z,984.32
2022-08-08T22:08:25.121Z,984.34
2022-08-08T22:14:52.800Z,984.38
2022-08-08T22:21:22.505Z,984.44
2022-08-08T22:28:01.145Z,984.43
2022-08-08T22:34:40.419Z,984.45
2022-08-08T22:41:21.355Z,984.49
2022-08-08T22:47:53.175Z,984.44
2022-08-08T22:54:33.075Z,984.41
2022-08-08T23:01:26.836Z,984.42
2022-08-08T23:07:58.422Z,984.43
2022-08-08T23:14:27.783Z,984.44
2022-08-08T23:20:58.196Z,984.43
2022-08-08T23:27:37.673Z,984.47
2022-08-08T23:34:19.870Z,984.54
2022-08-08T23:40:58.821Z,984.52
2022-08-08T23:48:58.007Z,984.45
2022-08-08T23:54:39.174Z,984.44
